Stations météo

réclame
Mon MeteoGroup
Wilhelminadorp aws, Pays-Bas (6323): Température de l'air & dewpoint: 16.03.2019 07:00:00 - 22.03.2019 07:00:00 (CET)Wilhelminadorp aws, Pays-Bas (6323): Température de l'air 5cm & Température de l'air -5cm: 16.03.2019 07:00:00 - 22.03.2019 07:00:00 (CET)Wilhelminadorp aws, Pays-Bas (6323): Température de l'air -20cm & Température de l'air -100cm: 16.03.2019 07:00:00 - 22.03.2019 07:00:00 (CET)Wilhelminadorp aws, Pays-Bas (6323): Vitesse du vent & gusts: 16.03.2019 07:00:00 - 22.03.2019 07:00:00 (CET)Wilhelminadorp aws, Pays-Bas (6323): Direction du vent: 16.03.2019 07:00:00 - 22.03.2019 07:00:00 (CET)Wilhelminadorp aws, Pays-Bas (6323): reduced air pressure: 16.03.2019 07:00:00 - 22.03.2019 07:00:00 (CET)Wilhelminadorp aws, Pays-Bas (6323): Quantités de précipitations: 16.03.2019 07:00:00 - 22.03.2019 07:00:00 (CET)
Date & Time tt [°C] td [°C] tt 5cm [°C] tt -5cm [°C] tt -20cm [°C] tt -100cm [°C] ff [km/h] ff [knt] fx [km/h] fx [knt] dd ppp [hPa] rr [mm]
22.03.2019 07:00:00 6,7 6,5 6,8 8,4 8,6 7,9 11 6 14 8 ENE 1031,0 0,0
22.03.2019 06:00:00 5,8 5,6 3,4 8,6 8,7 7,9 7 4 14 8 NE 1030,8 0,0
22.03.2019 05:00:00 7,8 7,1 7,7 8,7 8,7 7,9 11 6 14 8 E 1030,9 0,0
22.03.2019 04:00:00 7,9 7,0 7,7 8,7 8,7 7,9 11 6 14 8 ENE 1031,5 0,0
22.03.2019 03:00:00 7,7 7,2 7,5 8,8 8,8 7,9 4 2 7 4 ENE 1031,8 0,0
22.03.2019 02:00:00 8,0 7,2 7,9 8,9 8,8 7,9 4 2 14 8 SE 1031,9 0,0
22.03.2019 01:00:00 8,2 6,9 7,9 8,9 8,8 7,9 7 4 11 6 SSE 1032,4 0,0
22.03.2019 00:00:00 8,1 7,1 7,9 9,0 8,9 7,9 4 2 14 8 NNE 1032,9 0,0
21.03.2019 23:00:00 8,0 6,9 7,8 9,1 8,9 7,9 4 2 7 4 NNE 1033,1 0,0
21.03.2019 22:00:00 8,4 6,9 8,2 9,2 8,9 7,9 4 2 7 4 N 1033,4 0,0
21.03.2019 21:00:00 8,7 7,1 8,5 9,2 8,9 7,9 7 4 14 8 N 1033,7 0,0
21.03.2019 20:00:00 9,0 7,4 8,9 9,3 8,9 7,9 11 6 14 8 NNW 1033,7 0,0
21.03.2019 19:00:00 9,3 7,6 9,2 9,4 8,8 7,9 7 4 14 8 NNW 1033,4 0,0
21.03.2019 18:00:00 9,6 7,7 9,6 9,5 8,7 7,9 11 6 14 8 W 1033,3 0,0
21.03.2019 17:00:00 10,0 7,9 10,2 9,4 8,6 7,9 11 6 18 10 W 1033,4 0,0
21.03.2019 16:00:00 10,5 8,0 10,9 9,3 8,5 7,9 14 8 18 10 W 1033,6 0,0
21.03.2019 15:00:00 11,2 7,5 12,1 9,0 8,3 7,9 11 6 22 12 W 1034,0 0,0
21.03.2019 14:00:00 11,0 7,6 11,9 8,7 8,2 7,9 14 8 25 14 W 1034,4 0,0
21.03.2019 13:00:00 10,5 7,3 11,2 8,5 8,1 7,9 14 8 25 14 WSW 1034,9 0,0
21.03.2019 12:00:00 9,8 7,0 10,3 8,2 8,0 7,9 18 10 25 14 WSW 1035,2 0,0
21.03.2019 11:00:00 9,6 7,2 9,9 8,0 7,9 7,9 14 8 22 12 WSW 1035,2 0,0
21.03.2019 10:00:00 9,2 7,6 9,3 7,7 7,9 7,9 11 6 22 12 SW 1035,2 0,0
21.03.2019 09:00:00 8,4 7,0 8,3 7,6 8,0 7,9 11 6 14 8 SSW 1034,8 0,0
21.03.2019 08:00:00 7,2 6,5 6,5 7,6 8,1 7,9 11 6 14 8 SSW 1034,9 0,0
21.03.2019 07:00:00 6,3 6,0 5,4 7,6 8,2 7,9 11 6 14 8 SSW 1035,4 0,0
21.03.2019 06:00:00 5,5 5,2 4,0 7,8 8,3 7,9 7 4 14 8 SSW 1033,0 0,0
21.03.2019 05:00:00 5,7 5,4 4,3 8,0 8,4 7,9 7 4 14 8 SW 1033,8 0,0
21.03.2019 04:00:00 6,1 5,8 4,4 8,2 8,5 7,9 7 4 14 8 SW 1033,9 0,0
21.03.2019 03:00:00 6,8 6,5 4,1 8,4 8,5 7,9 7 4 7 4 SW 1034,0 0,0
21.03.2019 02:00:00 7,5 6,9 6,1 8,6 8,6 7,9 7 4 14 8 SW 1034,1 0,0
21.03.2019 01:00:00 8,0 7,1 6,7 8,8 8,6 7,9 7 4 14 8 SSW 1034,3 0,0
21.03.2019 00:00:00 9,4 8,2 9,1 8,8 8,6 7,9 7 4 14 8 SSW 1034,4 0,0
20.03.2019 23:00:00 9,4 8,1 8,8 8,9 8,6 7,9 7 4 11 6 SSW 1034,6 0,0
20.03.2019 22:00:00 9,4 8,4 9,2 9,0 8,6 7,9 4 2 14 8 WSW 1034,6 0,0
20.03.2019 21:00:00 9,6 8,6 9,3 9,0 8,6 7,9 4 2 14 8 W 1034,6 0,0
20.03.2019 20:00:00 9,8 8,6 9,5 9,1 8,6 7,9 7 4 7 4 SW 1034,4 0,0
20.03.2019 19:00:00 10,2 8,9 10,0 9,2 8,5 7,9 4 2 14 8 WSW 1034,1 0,0
20.03.2019 18:00:00 10,6 8,9 10,6 9,2 8,4 7,9 11 6 18 10 WSW 1033,8 0,0
20.03.2019 17:00:00 10,9 8,5 10,9 9,2 8,3 7,9 14 8 22 12 WSW 1033,6 0,0
20.03.2019 16:00:00 10,9 8,6 11,0 9,1 8,2 7,9 18 10 25 14 WSW 1033,5 0,0
20.03.2019 15:00:00 11,2 9,0 11,4 8,9 8,0 7,9 18 10 29 16 WSW 1033,7 0,0
20.03.2019 14:00:00 11,5 8,9 12,1 8,7 7,8 7,9 18 10 36 19 WSW 1033,7 0,0
20.03.2019 13:00:00 11,4 8,6 12,4 8,3 7,7 7,9 22 12 29 16 WSW 1033,7 0,0
20.03.2019 12:00:00 10,8 8,5 10,8 8,0 7,6 7,9 22 12 29 16 W 1034,0 0,0
20.03.2019 11:00:00 10,8 8,8 11,0 7,7 7,5 7,9 18 10 25 14 WSW 1033,5 0,0
20.03.2019 10:00:00 8,9 7,7 9,1 7,5 7,4 7,9 11 6 25 14 SW 1033,0 0,0
20.03.2019 09:00:00 8,6 7,6 8,8 7,3 7,4 7,9 18 10 22 12 SW 1032,5 0,0
20.03.2019 08:00:00 8,5 7,8 8,4 7,3 7,4 7,9 14 8 22 12 WSW 1032,3 0,0
20.03.2019 07:00:00 7,9 7,2 7,7 7,2 7,4 7,9 14 8 22 12 WSW 1031,9 0,0
20.03.2019 06:00:00 7,4 6,6 7,1 7,2 7,5 7,9 11 6 14 8 SW 1031,3 0,0
20.03.2019 05:00:00 7,1 6,4 6,4 7,3 7,5 7,9 11 6 18 10 SW 1031,1 0,0
20.03.2019 04:00:00 7,9 6,9 7,5 7,3 7,5 7,9 14 8 22 12 SW 1030,9 0,0
20.03.2019 03:00:00 8,0 6,6 7,4 7,3 7,5 7,9 14 8 22 12 SW 1031,2 0,0
20.03.2019 02:00:00 7,9 5,8 7,4 7,3 7,6 7,9 11 6 14 8 SW 1031,2 0,0
20.03.2019 01:00:00 8,0 5,6 7,2 7,3 7,7 7,9 11 6 14 8 SSW 1031,2 0,0
20.03.2019 00:00:00 7,4 5,7 6,4 7,5 7,7 7,9 11 6 14 8 SSW 1030,9 0,0
19.03.2019 23:00:00 5,9 4,0 2,9 7,7 7,8 7,9 7 4 14 8 S 1030,6 0,0
19.03.2019 22:00:00 6,6 4,6 4,6 7,8 7,8 7,9 7 4 14 8 S 1030,4 0,0
19.03.2019 21:00:00 7,8 6,2 7,2 8,0 7,8 7,9 7 4 14 8 W 1030,6 0,0
19.03.2019 20:00:00 7,7 4,8 5,4 8,2 7,8 7,9 7 4 14 8 SW 1029,9 0,0
19.03.2019 19:00:00 7,8 3,9 5,6 8,4 7,7 7,9 7 4 14 8 WSW 1029,4 0,0
19.03.2019 18:00:00 10,2 5,1 10,1 8,4 7,6 7,9 11 6 18 10 W 1028,9 0,0
19.03.2019 17:00:00 11,4 5,0 11,6 8,3 7,4 7,9 14 8 25 14 WSW 1028,6 0,0
19.03.2019 16:00:00 11,2 5,0 12,4 8,0 7,2 7,9 14 8 25 14 W 1028,6 0,0
19.03.2019 15:00:00 11,4 4,7 11,1 7,8 7,0 7,9 14 8 25 14 W 1028,5 0,0
19.03.2019 14:00:00 11,3 4,1 12,0 7,4 6,7 7,9 14 8 25 14 WSW 1028,6 0,0
19.03.2019 13:00:00 10,8 5,4 11,7 6,9 6,5 7,9 14 8 22 12 SSW 1028,7 0,0
19.03.2019 12:00:00 9,8 4,4 10,8 6,4 6,4 7,9 14 8 22 12 SSW 1028,6 0,0
19.03.2019 11:00:00 9,4 5,0 10,5 5,9 6,3 7,9 18 10 25 14 WSW 1028,5 0,0
19.03.2019 10:00:00 8,1 5,6 8,6 5,5 6,3 7,9 7 4 14 8 SSW 1027,9 0,0
19.03.2019 09:00:00 5,5 4,1 5,5 5,3 6,4 7,9 11 6 14 8 SSW 1027,5 0,0
19.03.2019 08:00:00 2,6 1,7 1,8 5,4 6,5 7,9 7 4 14 8 S 1027,1 0,0
19.03.2019 07:00:00 1,7 0,9 -1,0 5,6 6,6 7,9 7 4 14 8 SSW 1026,5 0,0
19.03.2019 06:00:00 1,7 0,7 0,3 5,7 6,8 7,9 7 4 14 8 SW 1026,2 0,0
19.03.2019 05:00:00 2,1 0,8 0,0 5,9 6,9 7,9 7 4 18 10 SW 1025,8 0,0
19.03.2019 04:00:00 2,2 0,6 1,2 6,0 7,0 7,9 11 6 14 8 SW 1025,6 0,0
19.03.2019 03:00:00 3,4 1,8 1,8 6,1 7,1 7,9 11 6 18 10 SSW 1025,4 0,0
19.03.2019 02:00:00 3,1 1,7 1,0 6,3 7,3 7,9 11 6 14 8 SSW 1025,1 0,0
19.03.2019 01:00:00 2,4 0,9 0,5 6,5 7,4 7,9 7 4 14 8 S 1025,0 0,0
19.03.2019 00:00:00 2,5 1,0 -0,2 6,7 7,6 7,9 7 4 14 8 S 1024,7 0,0
18.03.2019 23:00:00 2,9 0,2 -0,7 7,0 7,7 7,9 7 4 14 8 SSW 1024,5 0,0
18.03.2019 22:00:00 2,1 1,1 -1,4 7,3 7,9 7,9 4 2 7 4 SSW 1024,2 0,0
18.03.2019 21:00:00 2,9 0,5 -0,5 7,6 8,0 7,9 4 2 11 6 WSW 1023,9 0,0
18.03.2019 20:00:00 4,4 1,0 0,9 8,0 8,0 7,9 7 4 7 4 WSW 1023,3 0,0
18.03.2019 19:00:00 5,1 1,6 3,6 8,3 8,0 7,9 4 2 18 10 WNW 1022,6 0,0
18.03.2019 18:00:00 7,8 1,7 7,4 8,4 7,9 7,9 18 10 29 16 NW 1022,1 0,0
18.03.2019 17:00:00 7,8 3,1 7,9 8,4 7,8 7,9 22 12 36 19 NW 1021,6 0,0
18.03.2019 16:00:00 8,4 1,1 8,9 8,3 7,7 7,9 25 14 36 19 NW 1021,0 0,0
18.03.2019 15:00:00 8,3 1,8 8,0 8,2 7,5 7,9 22 12 29 16 NW 1020,7 0,0
18.03.2019 14:00:00 8,6 2,1 8,4 8,0 7,3 7,9 18 10 29 16 WNW 1020,5 0,0
18.03.2019 13:00:00 9,0 0,5 9,7 7,5 7,2 7,9 22 12 32 18 NW 1020,2 0,0
18.03.2019 12:00:00 8,4 0,2 9,1 7,1 7,1 7,9 25 14 36 19 WNW 1019,8 0,0
18.03.2019 11:00:00 8,5 2,7 9,4 6,7 7,1 7,9 25 14 36 19 WNW 1019,0 0,0
18.03.2019 10:00:00 8,0 3,6 8,4 6,5 7,1 7,9 29 16 36 19 WNW 1018,3 0,0
18.03.2019 09:00:00 7,6 2,6 7,6 6,4 7,2 7,9 22 12 32 18 WNW 1017,4 0,0
18.03.2019 08:00:00 5,5 2,4 4,4 6,5 7,3 7,9 11 6 22 12 W 1016,8 0,0
18.03.2019 07:00:00 4,8 2,0 3,6 6,6 7,4 7,9 14 8 22 12 WNW 1015,9 0,0
18.03.2019 06:00:00 4,8 2,7 3,0 6,8 7,4 7,8 14 8 18 10 WNW 1015,2 0,0
18.03.2019 05:00:00 5,3 2,7 4,3 6,9 7,5 7,8 14 8 29 16 WNW 1014,4 0,0
18.03.2019 04:00:00 5,6 2,6 4,7 7,0 7,6 7,8 14 8 25 14 WNW 1013,6 0,0
18.03.2019 03:00:00 6,2 3,2 5,6 7,0 7,7 7,8 25 14 32 18 WNW 1013,0 0,0
18.03.2019 02:00:00 4,7 2,8 4,5 7,1 7,8 7,8 11 6 32 18 SW 1012,5 0,0
18.03.2019 01:00:00 4,7 2,6 4,3 7,2 7,9 7,8 22 12 32 18 WSW 1011,7 0,0
18.03.2019 00:00:00 4,0 2,3 3,5 7,3 8,0 7,8 14 8 22 12 SW 1011,5 0,0
17.03.2019 23:00:00 4,1 2,1 3,2 7,5 8,1 7,8 18 10 25 14 SW 1011,2 0,0
17.03.2019 22:00:00 4,0 1,9 3,4 7,7 8,2 7,8 14 8 29 16 SW 1010,5 0,0
17.03.2019 21:00:00 4,9 1,9 4,0 8,0 8,3 7,8 18 10 29 16 WSW 1009,8 0,0
17.03.2019 20:00:00 5,2 1,5 4,6 8,2 8,3 7,8 25 14 36 19 W 1009,2 0,0
17.03.2019 19:00:00 6,1 1,5 5,4 8,4 8,4 7,8 22 12 36 19 W 1008,0 0,0
17.03.2019 18:00:00 7,6 1,5 7,5 8,5 8,3 7,8 25 14 43 23 W 1007,3 0,0
17.03.2019 17:00:00 7,4 2,6 7,4 8,5 8,3 7,8 29 16 47 25 WSW 1006,6 0,0
17.03.2019 16:00:00 7,7 1,8 7,8 8,5 8,2 7,8 36 19 47 25 W 1006,1 0,0
17.03.2019 15:00:00 7,7 1,9 7,8 8,4 8,2 7,8 40 21 54 29 W 1005,4 0,0
17.03.2019 14:00:00 8,5 2,2 9,6 8,2 8,1 7,8 40 21 50 27 W 1004,9 0,0
17.03.2019 13:00:00 7,7 2,2 8,2 8,1 8,1 7,8 36 19 47 25 W 1004,5 0,0
17.03.2019 12:00:00 8,2 3,5 7,7 8,0 8,1 7,8 36 19 47 25 W 1003,7 0,0
17.03.2019 11:00:00 7,1 4,0 7,1 7,9 8,1 7,8 29 16 47 25 W 1002,8 0,0
17.03.2019 10:00:00 7,1 4,6 6,0 7,9 8,2 7,8 22 12 50 27 W 1001,8 0,0
17.03.2019 09:00:00 6,3 3,2 6,1 8,0 8,2 7,8 36 19 50 27 W 1000,8 0,1
17.03.2019 08:00:00 7,0 4,0 6,2 8,1 8,3 7,8 32 18 54 29 W 999,7 0,0
17.03.2019 07:00:00 6,9 5,1 6,5 8,2 8,3 7,7 18 10 32 18 W 998,6 0,2
17.03.2019 06:00:00 7,4 5,2 6,9 8,2 8,3 7,7 18 10 47 25 W 998,0 0,6
17.03.2019 05:00:00 7,9 6,9 7,8 8,3 8,4 7,7 32 18 50 27 WSW 997,4 -
17.03.2019 04:00:00 8,1 6,8 7,9 8,3 8,4 7,7 36 19 50 27 WSW 996,6 0,9
17.03.2019 03:00:00 8,3 6,7 8,0 8,4 8,4 7,7 32 18 61 33 SSW 996,3 0,7
17.03.2019 02:00:00 8,8 6,2 8,5 8,4 8,5 7,7 36 19 65 35 SSW 997,1 0,0
17.03.2019 01:00:00 10,2 5,1 9,7 8,5 8,5 7,7 36 19 61 33 SW 997,6 0,0
17.03.2019 00:00:00 11,0 4,9 10,6 8,5 8,5 7,7 32 18 58 31 SW 998,3 0,0
16.03.2019 23:00:00 10,8 5,3 10,0 8,6 8,5 7,7 32 18 61 33 SW 999,2 0,0
16.03.2019 22:00:00 11,0 5,6 10,5 8,7 8,5 7,7 40 21 58 31 SW 1000,1 0,0
16.03.2019 21:00:00 11,0 6,2 10,5 8,7 8,6 7,7 25 14 47 25 SW 1000,9 0,0
16.03.2019 20:00:00 11,1 6,4 10,6 8,8 8,6 7,7 32 18 47 25 SW 1001,6 0,0
16.03.2019 19:00:00 11,2 6,3 10,7 8,8 8,6 7,7 25 14 50 27 SW 1002,1 0,0
16.03.2019 18:00:00 11,2 5,4 10,7 8,8 8,5 7,7 36 19 65 35 SW 1002,5 0,0
16.03.2019 17:00:00 11,1 5,3 10,8 8,9 8,5 7,7 50 27 79 43 SW 1003,3 0,0
16.03.2019 16:00:00 11,1 5,6 10,9 8,9 8,5 7,7 54 29 76 41 SW 1003,9 0,0
16.03.2019 15:00:00 11,1 6,2 10,8 8,8 8,4 7,7 50 27 72 39 WSW 1004,9 0,0
16.03.2019 14:00:00 11,2 6,5 10,8 8,8 8,4 7,7 50 27 76 41 SW 1005,4 0,0
16.03.2019 13:00:00 11,1 6,9 11,0 8,7 8,3 7,7 43 23 68 37 SW 1005,8 0,0
16.03.2019 12:00:00 10,7 8,0 10,2 8,6 8,3 7,7 43 23 72 39 SW 1006,3 0,0
16.03.2019 11:00:00 11,1 7,0 10,9 8,5 8,2 7,7 47 25 65 35 SW 1006,5 0,0
16.03.2019 10:00:00 10,6 7,8 10,5 8,4 8,2 7,7 36 19 61 33 SW 1007,2 0,0
16.03.2019 09:00:00 10,0 8,3 9,8 8,4 8,2 7,7 36 19 54 29 WSW 1007,7 0,4
16.03.2019 08:00:00 10,0 8,2 9,7 8,4 8,2 7,7 36 19 65 35 WSW 1007,8 0,2
16.03.2019 07:00:00 10,1 8,1 9,7 8,4 8,2 7,7 50 27 68 37 WSW 1008,0 0,9

tt = Température de l'air
td = dewpoint
tt 5cm = Température de l'air 5cm
tt -5cm = Température de l'air -5cm
tt -20cm = Température de l'air -20cm
tt -100cm = Température de l'air -100cm
ff = Vitesse du vent
fx = gusts
dd = Direction du vent
ppp = reduced air pressure
rr = Quantités de précipitations

stations d'obs. à proximité